Terminal Aerodrome Forecast
Issued by NWS Sioux Falls, SD

Home | Current Version | Previous Version | Text Only | Print | Product List | Glossary On
Versions: 1 2 3 4 5 6 7 8 9 10 11 12 13 14 15
000
FTUS43 KFSD 111045 AAA
TAFHON
TAF AMD
KHON 111045Z 1111/1206 30020G30KT P6SM BKN070
     FM111400 32023G35KT P6SM -SHSN OVC025
     FM111800 34021G33KT P6SM OVC025
     FM112300 35014G22KT P6SM BKN050
     FM120200 35007KT P6SM BKN060=

USA.gov is the U.S. government's official web portal to all federal, state and local government web resources and services.